Time;durP1;ratioP1;P1;durP2;ratioP2;P2;SDS_P1;SDS_P2;PMS_P1;PMS_P2;Temp;Humidity;BMP_temperature;BMP_pressure;BME280_temperature;BME280_humidity;BME280_pressure;Samples;Min_cycle;Max_cycle;Signal;HPM_P1;HPM_P2
2021/06/18 00:02:19;;;;;;;10.80;7.57;;;19.40;95.00;;;;;;5044174;28;20207;-54
2021/06/18 00:04:44;;;;;;;10.90;8.30;;;19.40;95.30;;;;;;5046477;28;20199;-54
2021/06/18 00:07:10;;;;;;;9.40;7.50;;;19.30;95.60;;;;;;5045571;28;20604;-55
2021/06/18 00:09:36;;;;;;;8.83;7.77;;;19.30;95.80;;;;;;5039813;28;20176;-55
2021/06/18 00:12:06;;;;;;;8.90;7.97;;;19.20;95.90;;;;;;5035771;28;20179;-54
2021/06/18 00:14:32;;;;;;;10.10;7.50;;;19.20;96.00;;;;;;5032562;28;20508;-55
2021/06/18 00:16:58;;;;;;;11.50;7.50;;;19.20;95.90;;;;;;5037862;28;20918;-54
2021/06/18 00:19:24;;;;;;;8.70;7.03;;;19.10;95.80;;;;;;5043602;28;20528;-53
2021/06/18 00:21:50;;;;;;;10.27;6.40;;;19.00;95.00;;;;;;5041142;28;20206;-54
2021/06/18 00:24:15;;;;;;;14.13;7.40;;;19.00;94.70;;;;;;5046722;28;20215;-54
2021/06/18 00:26:41;;;;;;;9.33;6.93;;;18.90;94.80;;;;;;5044457;28;20918;-54
2021/06/18 00:29:07;;;;;;;7.67;6.90;;;18.90;94.90;;;;;;5039491;28;20172;-54
2021/06/18 00:31:33;;;;;;;11.60;6.97;;;18.90;95.00;;;;;;5042973;28;20179;-54
2021/06/18 00:33:58;;;;;;;9.80;7.27;;;18.90;95.30;;;;;;5045162;28;20207;-54
2021/06/18 00:36:24;;;;;;;10.60;7.03;;;18.80;95.50;;;;;;5045372;28;20547;-54
2021/06/18 00:38:50;;;;;;;10.07;6.67;;;18.80;95.50;;;;;;5043753;28;20193;-54
2021/06/18 00:41:16;;;;;;;9.33;7.50;;;18.80;95.60;;;;;;5046168;28;20260;-55
2021/06/18 00:43:43;;;;;;;10.93;7.10;;;18.80;95.70;;;;;;5046844;28;20273;-54
2021/06/18 00:46:09;;;;;;;7.90;6.50;;;18.70;95.60;;;;;;5039268;28;20652;-54
2021/06/18 00:48:36;;;;;;;9.43;7.40;;;18.70;95.70;;;;;;5042582;28;20655;-54
2021/06/18 00:51:02;;;;;;;10.93;8.37;;;18.60;95.70;;;;;;5045352;28;20489;-54
2021/06/18 00:53:28;;;;;;;11.07;7.87;;;18.60;96.10;;;;;;5044538;28;20450;-54
2021/06/18 00:55:54;;;;;;;10.80;7.53;;;18.50;96.50;;;;;;5041913;28;20187;-54
2021/06/18 00:58:20;;;;;;;9.50;7.60;;;18.60;96.80;;;;;;5040302;28;20445;-54
2021/06/18 01:00:47;;;;;;;12.07;7.70;;;18.60;97.00;;;;;;5044758;28;20192;-55
2021/06/18 01:03:13;;;;;;;10.40;7.67;;;18.60;97.00;;;;;;5046875;28;20187;-54
2021/06/18 01:05:40;;;;;;;12.53;7.27;;;18.60;96.80;;;;;;5042367;28;20559;-55
2021/06/18 01:08:28;;;;;;;17.30;8.10;;;18.60;96.80;;;;;;5046288;28;20267;-54
2021/06/18 01:11:05;;;;;;;9.93;7.50;;;18.60;96.90;;;;;;5043053;28;20430;-54
2021/06/18 01:13:39;;;;;;;8.43;7.57;;;18.60;96.80;;;;;;5035899;28;20488;-54
2021/06/18 01:16:16;;;;;;;11.60;8.37;;;18.60;96.90;;;;;;5038727;28;20424;-54
2021/06/18 01:19:10;;;;;;;10.93;7.30;;;18.60;96.80;;;;;;5043724;28;20441;-55
2021/06/18 01:21:43;;;;;;;10.60;7.87;;;18.50;97.00;;;;;;5025255;28;21075;-54
2021/06/18 01:24:35;;;;;;;10.87;6.40;;;18.50;96.90;;;;;;5042926;28;20644;-55
2021/06/18 01:27:33;;;;;;;10.70;7.40;;;18.40;96.90;;;;;;5037277;28;20521;-55
2021/06/18 01:30:20;;;;;;;9.73;6.90;;;18.40;96.60;;;;;;5040462;28;20513;-54
2021/06/18 01:33:08;;;;;;;10.30;6.43;;;18.30;96.70;;;;;;5012885;28;20444;-54
2021/06/18 01:35:44;;;;;;;8.37;7.30;;;18.20;96.80;;;;;;5043446;28;20472;-54
2021/06/18 01:38:11;;;;;;;12.10;6.90;;;18.20;96.70;;;;;;5041393;28;20421;-54
2021/06/18 01:40:37;;;;;;;11.03;7.43;;;18.20;96.80;;;;;;5039738;28;20461;-54
2021/06/18 01:43:06;;;;;;;10.47;7.03;;;18.10;97.00;;;;;;5046558;28;20422;-54
2021/06/18 01:45:33;;;;;;;8.47;7.37;;;18.10;97.10;;;;;;5044078;28;20457;-54
2021/06/18 01:48:02;;;;;;;8.53;6.90;;;18.00;97.10;;;;;;5045695;28;20524;-54
2021/06/18 01:50:30;;;;;;;8.87;7.97;;;18.00;97.20;;;;;;5040061;28;20445;-54
2021/06/18 01:53:17;;;;;;;7.77;7.00;;;17.90;97.20;;;;;;5028154;28;21018;-54
2021/06/18 01:55:44;;;;;;;11.20;7.40;;;17.90;97.50;;;;;;5044198;28;20393;-54
2021/06/18 01:58:11;;;;;;;10.57;7.87;;;17.80;97.70;;;;;;5033196;28;20434;-52
2021/06/18 02:00:40;;;;;;;8.10;7.27;;;17.80;98.10;;;;;;5043722;28;20606;-54
2021/06/18 02:03:09;;;;;;;12.77;7.20;;;17.80;98.30;;;;;;5037495;28;20444;-54
2021/06/18 02:05:37;;;;;;;8.87;7.80;;;17.70;98.20;;;;;;5043567;28;20453;-54
2021/06/18 02:08:06;;;;;;;11.60;7.90;;;17.70;98.30;;;;;;5031943;28;20441;-53
2021/06/18 02:10:34;;;;;;;14.93;7.00;;;17.70;98.20;;;;;;5031773;28;20449;-53
2021/06/18 02:13:04;;;;;;;12.93;7.20;;;17.60;97.80;;;;;;5019177;28;20437;-54
2021/06/18 02:15:31;;;;;;;9.87;7.60;;;17.60;97.60;;;;;;5039016;28;20453;-54
2021/06/18 02:17:57;;;;;;;11.30;7.13;;;17.60;97.20;;;;;;5043426;28;20421;-54
2021/06/18 02:20:23;;;;;;;9.70;7.53;;;17.50;97.10;;;;;;5043380;28;20457;-54
2021/06/18 02:22:50;;;;;;;18.97;7.17;;;17.50;97.50;;;;;;5039441;28;20510;-54
2021/06/18 02:25:16;;;;;;;10.77;7.27;;;17.50;97.60;;;;;;5037578;28;20973;-54
2021/06/18 02:27:43;;;;;;;7.87;7.07;;;17.40;97.60;;;;;;5025445;28;20432;-54
2021/06/18 02:30:12;;;;;;;9.40;7.67;;;17.40;97.80;;;;;;5044881;28;20471;-53
2021/06/18 02:32:38;;;;;;;11.03;7.60;;;17.40;97.90;;;;;;5042658;28;20515;-54
2021/06/18 02:35:05;;;;;;;8.87;7.33;;;17.40;98.10;;;;;;5023568;28;20542;-54
2021/06/18 02:37:31;;;;;;;12.07;8.10;;;17.40;98.40;;;;;;5044240;28;20444;-54
2021/06/18 02:39:57;;;;;;;11.43;7.97;;;17.40;98.40;;;;;;5042380;28;20483;-53
2021/06/18 02:42:24;;;;;;;11.70;7.77;;;17.50;98.40;;;;;;5025184;28;20442;-54
2021/06/18 02:44:50;;;;;;;9.40;7.00;;;17.50;98.30;;;;;;5044033;28;20446;-54
2021/06/18 02:47:43;;;;;;;8.13;7.37;;;17.50;98.30;;;;;;5035510;28;20497;-54
2021/06/18 02:50:27;;;;;;;9.90;8.00;;;17.50;98.10;;;;;;5039999;28;20177;-54
2021/06/18 02:53:01;;;;;;;10.67;7.20;;;17.50;97.80;;;;;;5041276;28;20422;-54
2021/06/18 02:55:36;;;;;;;10.53;7.43;;;17.50;98.00;;;;;;5043344;28;20903;-54
2021/06/18 02:58:24;;;;;;;12.10;7.77;;;17.50;98.00;;;;;;5039716;28;20499;-53
2021/06/18 03:00:51;;;;;;;13.93;7.30;;;17.50;97.30;;;;;;5040884;28;20449;-52
2021/06/18 03:03:24;;;;;;;9.90;7.07;;;17.50;96.70;;;;;;5039090;28;20483;-54
2021/06/18 03:05:52;;;;;;;21.33;7.30;;;17.50;96.80;;;;;;5028345;28;21136;-53
2021/06/18 03:08:19;;;;;;;10.53;7.70;;;17.50;97.10;;;;;;5042969;28;20833;-53
2021/06/18 03:10:50;;;;;;;7.90;7.10;;;17.40;97.30;;;;;;5041443;28;20506;-53
2021/06/18 03:13:31;;;;;;;10.60;7.93;;;17.40;97.40;;;;;;5036203;28;20510;-53
2021/06/18 03:15:57;;;;;;;9.60;8.17;;;17.40;97.30;;;;;;5042227;28;20491;-53
2021/06/18 03:18:24;;;;;;;9.70;7.30;;;17.40;97.50;;;;;;5044964;28;20425;-54
2021/06/18 03:20:59;;;;;;;10.90;8.00;;;17.30;97.50;;;;;;5045675;28;20602;-54
2021/06/18 03:23:26;;;;;;;10.87;8.67;;;17.30;97.80;;;;;;5047439;28;20433;-53
2021/06/18 03:25:53;;;;;;;10.10;7.93;;;17.20;97.90;;;;;;5045955;28;20564;-54
2021/06/18 03:28:20;;;;;;;12.37;8.00;;;17.20;98.30;;;;;;5043369;28;20490;-54
2021/06/18 03:30:49;;;;;;;8.77;7.40;;;17.20;98.40;;;;;;5047715;28;20410;-54
2021/06/18 03:33:17;;;;;;;9.27;7.40;;;17.10;98.30;;;;;;5036038;28;20768;-53
2021/06/18 03:35:45;;;;;;;9.57;7.60;;;17.10;98.50;;;;;;5044542;28;20448;-53
2021/06/18 03:38:13;;;;;;;11.30;8.40;;;17.00;98.50;;;;;;5047204;28;20964;-53
2021/06/18 03:40:40;;;;;;;9.50;8.20;;;16.90;98.70;;;;;;5041933;28;20445;-54
2021/06/18 03:43:06;;;;;;;10.80;8.70;;;16.90;99.20;;;;;;5043990;28;20487;-53
2021/06/18 03:45:34;;;;;;;12.13;8.63;;;16.80;99.20;;;;;;5049937;28;21083;-54
2021/06/18 03:48:01;;;;;;;11.97;9.13;;;16.80;99.40;;;;;;5047226;28;20510;-53
2021/06/18 03:50:28;;;;;;;12.00;8.30;;;16.80;99.50;;;;;;5038129;28;20796;-54
2021/06/18 03:52:53;;;;;;;13.30;8.43;;;16.80;99.50;;;;;;5046710;28;20567;-53
2021/06/18 03:55:19;;;;;;;11.57;8.87;;;16.80;99.50;;;;;;5045712;28;20988;-53
2021/06/18 03:57:48;;;;;;;11.13;8.67;;;16.70;99.70;;;;;;5046125;28;20202;-53
2021/06/18 04:00:15;;;;;;;12.53;8.53;;;16.70;99.60;;;;;;5041693;28;20719;-53
2021/06/18 04:02:41;;;;;;;9.57;8.00;;;16.70;99.60;;;;;;5042756;28;20512;-54
2021/06/18 04:05:11;;;;;;;12.07;8.53;;;16.70;99.70;;;;;;5046804;28;20433;-53
2021/06/18 04:07:37;;;;;;;14.40;8.93;;;16.70;99.70;;;;;;5046189;28;20996;-53
2021/06/18 04:10:03;;;;;;;13.20;8.57;;;16.70;99.60;;;;;;5042767;28;20421;-53
2021/06/18 04:12:30;;;;;;;11.47;8.70;;;16.70;99.60;;;;;;5047161;28;20426;-53
2021/06/18 04:14:56;;;;;;;9.90;8.60;;;16.80;99.60;;;;;;5046867;28;20449;-53
2021/06/18 04:17:22;;;;;;;12.47;9.83;;;16.80;99.50;;;;;;5047046;28;20502;-53
2021/06/18 04:19:51;;;;;;;11.43;8.70;;;16.80;99.70;;;;;;5038002;28;20175;-54
2021/06/18 04:22:25;;;;;;;14.13;9.23;;;16.90;99.70;;;;;;5044254;28;20570;-53
2021/06/18 04:24:51;;;;;;;11.35;9.05;;;16.90;99.90;;;;;;5164286;22;20466;-54
2021/06/18 04:27:17;;;;;;;12.17;9.40;;;17.00;99.90;;;;;;5044113;28;20547;-55
2021/06/18 04:29:42;;;;;;;11.50;8.70;;;17.00;99.70;;;;;;5040933;28;20679;-58
2021/06/18 04:32:08;;;;;;;12.97;9.40;;;17.10;99.70;;;;;;5039758;28;20187;-59
2021/06/18 04:34:34;;;;;;;13.30;9.83;;;17.20;99.60;;;;;;5041435;28;20255;-55
2021/06/18 04:37:00;;;;;;;16.93;9.43;;;17.20;99.40;;;;;;5029052;28;20798;-58
2021/06/18 04:39:26;;;;;;;11.83;9.23;;;17.30;99.00;;;;;;5014809;28;20214;-56
2021/06/18 04:41:51;;;;;;;16.83;9.53;;;17.30;98.90;;;;;;5026481;28;21103;-59
2021/06/18 04:44:17;;;;;;;10.47;9.37;;;17.40;98.60;;;;;;5041779;28;20175;-57
2021/06/18 04:46:43;;;;;;;12.53;9.30;;;17.40;98.30;;;;;;5043961;28;20210;-55
2021/06/18 04:49:08;;;;;;;14.60;9.33;;;17.40;98.10;;;;;;5045480;28;20179;-53
2021/06/18 04:51:34;;;;;;;12.43;8.67;;;17.50;97.90;;;;;;5039916;28;20179;-61
2021/06/18 04:54:00;;;;;;;16.03;8.50;;;17.50;98.30;;;;;;5038894;28;22011;-60
2021/06/18 04:56:25;;;;;;;21.37;9.07;;;17.50;97.90;;;;;;5040728;28;20215;-55
2021/06/18 04:58:51;;;;;;;14.07;8.93;;;17.50;97.80;;;;;;5040857;28;20533;-61
2021/06/18 05:01:17;;;;;;;13.00;10.07;;;17.60;97.60;;;;;;5023018;28;20195;-56
2021/06/18 05:03:43;;;;;;;11.67;9.97;;;17.60;97.40;;;;;;5041488;28;20225;-60
2021/06/18 05:06:08;;;;;;;15.97;9.73;;;17.70;97.70;;;;;;5019544;28;20544;-61
2021/06/18 05:08:34;;;;;;;12.10;10.10;;;17.70;98.00;;;;;;5015158;28;20262;-57
2021/06/18 05:11:00;;;;;;;16.57;9.80;;;17.80;97.50;;;;;;5040199;28;20184;-57
2021/06/18 05:13:25;;;;;;;13.10;9.00;;;17.80;97.60;;;;;;5034737;28;20715;-58
2021/06/18 05:15:51;;;;;;;14.83;10.40;;;17.80;97.30;;;;;;5043979;28;20233;-59
2021/06/18 05:18:16;;;;;;;13.87;9.43;;;17.90;97.30;;;;;;5039445;28;20180;-56
2021/06/18 05:20:42;;;;;;;17.40;10.20;;;17.90;96.80;;;;;;5041643;28;20309;-57
2021/06/18 05:23:11;;;;;;;19.93;10.10;;;17.90;96.80;;;;;;5035137;28;20175;-57
2021/06/18 05:25:37;;;;;;;17.17;11.27;;;18.00;97.50;;;;;;5030958;28;21054;-56
2021/06/18 05:28:03;;;;;;;13.50;10.47;;;18.20;97.20;;;;;;5039232;28;20468;-56
2021/06/18 05:30:29;;;;;;;13.13;10.20;;;18.30;97.20;;;;;;5014975;28;20185;-57
2021/06/18 05:32:54;;;;;;;14.77;10.17;;;18.40;96.80;;;;;;5033063;28;20426;-55
2021/06/18 05:35:20;;;;;;;16.87;10.30;;;18.50;96.20;;;;;;5037392;28;20222;-58
2021/06/18 05:37:46;;;;;;;15.97;9.40;;;18.60;95.80;;;;;;5039037;28;20620;-58
2021/06/18 05:40:12;;;;;;;18.47;9.53;;;18.70;96.30;;;;;;5039535;28;20635;-56
2021/06/18 05:42:38;;;;;;;12.03;9.87;;;18.80;96.00;;;;;;5022420;28;20545;-60
2021/06/18 05:45:05;;;;;;;10.63;8.47;;;18.90;95.50;;;;;;5042898;28;20545;-58
2021/06/18 05:47:31;;;;;;;19.60;9.87;;;19.10;95.70;;;;;;5034316;28;20517;-57
2021/06/18 05:49:57;;;;;;;16.80;10.30;;;19.20;95.30;;;;;;5039348;28;20844;-53
2021/06/18 05:52:22;;;;;;;16.87;9.30;;;19.30;94.60;;;;;;5042755;28;20171;-58
2021/06/18 05:54:48;;;;;;;14.97;10.53;;;19.40;94.50;;;;;;5039925;28;20698;-54
2021/06/18 05:57:14;;;;;;;16.03;9.33;;;19.40;94.00;;;;;;5044605;28;20175;-56
2021/06/18 05:59:41;;;;;;;19.57;9.63;;;19.40;95.00;;;;;;5043704;28;20254;-56
2021/06/18 06:02:07;;;;;;;15.83;10.17;;;19.50;95.40;;;;;;5038761;28;20191;-58
2021/06/18 06:04:34;;;;;;;14.43;9.60;;;19.70;95.10;;;;;;5045693;28;20436;-58
2021/06/18 06:07:00;;;;;;;15.90;10.40;;;19.80;95.00;;;;;;5038602;28;20195;-57
2021/06/18 06:09:25;;;;;;;16.13;10.10;;;20.10;94.80;;;;;;5042580;28;20433;-57
2021/06/18 06:11:51;;;;;;;18.57;10.27;;;20.20;94.70;;;;;;5040511;28;20483;-59
2021/06/18 06:14:17;;;;;;;26.20;10.90;;;20.50;94.40;;;;;;5038662;28;20175;-56
2021/06/18 06:16:45;;;;;;;32.03;10.80;;;20.70;93.50;;;;;;5039377;28;20187;-58
2021/06/18 06:19:11;;;;;;;31.63;10.50;;;20.90;92.30;;;;;;5045788;28;20437;-57
2021/06/18 06:21:36;;;;;;;34.80;11.30;;;21.00;91.60;;;;;;5043060;28;20575;-55
2021/06/18 06:24:02;;;;;;;24.50;13.00;;;21.20;91.10;;;;;;5039099;28;20247;-56
2021/06/18 06:26:28;;;;;;;25.03;12.33;;;21.40;91.30;;;;;;5043908;28;20234;-57
2021/06/18 06:28:53;;;;;;;19.23;10.77;;;21.60;90.50;;;;;;5038984;28;20279;-53
2021/06/18 06:31:19;;;;;;;24.93;11.73;;;21.80;88.50;;;;;;5043445;28;20320;-58
2021/06/18 06:33:45;;;;;;;28.23;12.10;;;21.90;87.80;;;;;;5038738;28;20190;-55
2021/06/18 06:36:11;;;;;;;16.30;8.57;;;22.10;86.70;;;;;;5047673;28;20225;-56
2021/06/18 06:38:37;;;;;;;13.60;7.17;;;22.30;85.00;;;;;;5039502;28;20175;-58
2021/06/18 06:41:03;;;;;;;11.13;7.97;;;22.40;81.20;;;;;;5040793;28;20281;-55
2021/06/18 06:43:29;;;;;;;21.27;8.17;;;22.60;80.30;;;;;;5044742;28;20461;-57
2021/06/18 06:45:55;;;;;;;11.70;7.80;;;22.80;80.70;;;;;;5046670;28;20472;-57
2021/06/18 06:48:20;;;;;;;19.53;8.50;;;23.00;79.00;;;;;;5044673;28;20209;-58
2021/06/18 06:50:48;;;;;;;17.03;9.10;;;23.20;77.60;;;;;;5040126;28;20556;-56
2021/06/18 06:53:13;;;;;;;22.47;8.60;;;23.30;77.10;;;;;;5040553;28;20438;-55
2021/06/18 06:55:39;;;;;;;23.10;8.50;;;23.40;77.00;;;;;;5047752;28;20464;-58
2021/06/18 06:58:05;;;;;;;19.50;7.60;;;23.40;72.60;;;;;;5047646;28;20191;-56
2021/06/18 07:00:31;;;;;;;20.90;7.40;;;23.40;70.30;;;;;;5048130;28;20172;-59
2021/06/18 07:02:57;;;;;;;15.57;7.17;;;23.40;68.10;;;;;;5057112;28;20194;-56
2021/06/18 07:05:23;;;;;;;11.10;7.67;;;23.60;68.50;;;;;;5059171;28;20762;-56
2021/06/18 07:07:48;;;;;;;12.67;7.23;;;23.70;67.60;;;;;;5049007;28;20182;-55
2021/06/18 07:10:15;;;;;;;18.90;7.60;;;23.70;66.80;;;;;;5058541;28;20420;-55
2021/06/18 07:12:40;;;;;;;10.03;7.10;;;23.80;67.20;;;;;;5031310;28;20524;-56
2021/06/18 07:15:07;;;;;;;14.07;7.07;;;23.90;66.60;;;;;;5043962;28;20457;-55
2021/06/18 07:17:33;;;;;;;9.70;6.40;;;24.00;65.20;;;;;;5045006;28;20171;-55
2021/06/18 07:20:01;;;;;;;10.77;7.10;;;24.10;64.10;;;;;;5037489;28;20429;-57
2021/06/18 07:22:27;;;;;;;14.60;8.30;;;24.20;63.20;;;;;;5049944;28;20644;-56
2021/06/18 07:24:53;;;;;;;13.43;8.03;;;24.30;64.10;;;;;;5049032;28;20527;-53
2021/06/18 07:27:20;;;;;;;11.83;8.57;;;24.40;65.10;;;;;;5045777;28;20421;-57
2021/06/18 07:29:46;;;;;;;14.57;9.30;;;24.40;64.70;;;;;;5048819;28;20665;-55
2021/06/18 07:32:12;;;;;;;15.03;9.10;;;24.50;65.80;;;;;;5051483;28;20847;-58
2021/06/18 07:34:38;;;;;;;17.97;10.50;;;24.50;65.30;;;;;;5048364;28;20430;-56
2021/06/18 07:37:04;;;;;;;22.03;9.23;;;24.60;65.50;;;;;;5045466;28;20176;-55
2021/06/18 07:39:30;;;;;;;15.37;9.27;;;24.70;66.80;;;;;;5052446;28;20175;-57
2021/06/18 07:41:56;;;;;;;13.70;9.37;;;24.70;65.30;;;;;;5050945;28;20467;-58
2021/06/18 07:44:22;;;;;;;19.47;9.13;;;24.80;65.30;;;;;;5039925;28;20524;-59
2021/06/18 07:46:48;;;;;;;13.50;7.40;;;24.80;66.10;;;;;;5049073;28;20223;-58
2021/06/18 07:49:13;;;;;;;13.43;6.33;;;24.90;65.20;;;;;;5050071;28;20570;-60
2021/06/18 07:51:39;;;;;;;8.60;6.33;;;25.10;63.80;;;;;;5043091;28;20179;-60
2021/06/18 07:54:05;;;;;;;9.60;5.70;;;25.20;63.00;;;;;;5037700;28;20187;-59
2021/06/18 07:56:37;;;;;;;11.87;5.60;;;25.40;61.20;;;;;;5042901;28;20705;-57
2021/06/18 07:59:03;;;;;;;7.37;5.50;;;25.60;59.50;;;;;;5042824;28;20429;-58
2021/06/18 08:01:28;;;;;;;18.73;5.53;;;25.70;58.10;;;;;;5045021;28;20472;-57
2021/06/18 08:03:54;;;;;;;10.60;5.77;;;25.80;57.30;;;;;;5046286;28;20178;-57
2021/06/18 08:06:20;;;;;;;13.67;5.80;;;25.90;56.70;;;;;;5052398;28;20191;-57
2021/06/18 08:08:46;;;;;;;6.73;5.30;;;26.00;55.70;;;;;;5050114;28;20191;-59
2021/06/18 08:11:12;;;;;;;5.73;5.17;;;26.10;55.20;;;;;;5048595;28;20183;-57
2021/06/18 08:13:38;;;;;;;5.83;5.07;;;26.20;54.80;;;;;;5034949;28;20979;-55
2021/06/18 08:16:05;;;;;;;7.43;5.47;;;26.30;54.30;;;;;;5046566;28;20456;-55
2021/06/18 08:18:34;;;;;;;6.70;5.50;;;26.40;54.00;;;;;;5043522;28;20194;-58
2021/06/18 08:21:00;;;;;;;9.50;5.83;;;26.40;52.90;;;;;;5043815;28;21217;-58
2021/06/18 08:23:26;;;;;;;14.73;6.20;;;26.50;52.70;;;;;;5030300;28;21032;-60
2021/06/18 08:25:52;;;;;;;6.30;5.43;;;26.60;53.00;;;;;;5043010;28;20453;-59
2021/06/18 08:28:18;;;;;;;10.53;4.87;;;26.60;52.90;;;;;;5045775;28;20280;-60
2021/06/18 08:30:43;;;;;;;6.63;5.40;;;26.70;52.30;;;;;;5048758;28;20600;-58
2021/06/18 08:33:09;;;;;;;11.20;4.80;;;26.80;52.20;;;;;;5045873;28;20726;-55
2021/06/18 08:35:35;;;;;;;7.87;5.60;;;26.90;52.90;;;;;;5047298;28;20194;-60
2021/06/18 08:38:02;;;;;;;8.53;5.77;;;26.90;53.20;;;;;;5042460;28;20228;-55
2021/06/18 08:40:30;;;;;;;9.43;5.47;;;27.00;52.90;;;;;;5047937;28;20182;-61
2021/06/18 08:42:57;;;;;;;9.20;5.43;;;26.90;52.30;;;;;;5042636;28;20533;-57
2021/06/18 08:45:23;;;;;;;7.20;5.73;;;27.00;52.40;;;;;;5038986;28;20445;-58
2021/06/18 08:47:50;;;;;;;8.30;5.70;;;27.00;52.30;;;;;;5048622;28;20469;-57
2021/06/18 08:50:22;;;;;;;12.03;5.57;;;27.10;52.50;;;;;;5048038;28;20557;-58
2021/06/18 08:52:51;;;;;;;7.57;5.30;;;27.20;52.70;;;;;;5041048;28;20437;-59
2021/06/18 08:55:20;;;;;;;7.93;5.13;;;27.20;52.20;;;;;;5049915;28;20425;-56
2021/06/18 08:57:48;;;;;;;10.43;5.10;;;27.30;52.60;;;;;;5046506;28;20471;-56
2021/06/18 09:00:15;;;;;;;11.33;5.47;;;27.40;52.50;;;;;;5040422;28;20434;-58
2021/06/18 09:02:41;;;;;;;6.30;5.03;;;27.50;51.30;;;;;;5047598;28;20476;-60
2021/06/18 09:05:09;;;;;;;6.30;5.37;;;27.60;50.70;;;;;;5046769;28;20456;-59
2021/06/18 09:07:58;;;;;;;9.87;5.53;;;27.60;50.30;;;;;;5043573;28;20168;-58
2021/06/18 09:10:31;;;;;;;5.20;4.70;;;27.70;49.60;;;;;;5041959;28;20409;-57
2021/06/18 09:13:15;;;;;;;7.90;4.83;;;27.70;48.90;;;;;;5044218;28;20438;-59
2021/06/18 09:15:53;;;;;;;10.97;5.00;;;27.90;48.50;;;;;;5044383;28;20529;-57
2021/06/18 09:18:33;;;;;;;7.47;4.27;;;27.90;48.90;;;;;;5043463;28;20467;-59
2021/06/18 09:21:02;;;;;;;5.83;5.33;;;28.10;48.10;;;;;;5045101;28;20942;-59
2021/06/18 09:23:28;;;;;;;10.60;5.60;;;28.20;47.70;;;;;;5048033;28;20300;-58
2021/06/18 09:26:25;;;;;;;10.37;4.67;;;28.30;47.20;;;;;;5046814;28;20457;-58
2021/06/18 09:29:05;;;;;;;5.73;4.40;;;28.30;47.50;;;;;;5039609;28;20452;-56
2021/06/18 09:31:47;;;;;;;7.53;4.80;;;28.40;46.70;;;;;;5038832;28;21108;-55
2021/06/18 09:34:14;;;;;;;9.10;4.97;;;28.50;46.50;;;;;;5042024;28;20185;-57
2021/06/18 09:36:42;;;;;;;8.57;5.27;;;28.70;46.60;;;;;;5027661;28;20336;-56
2021/06/18 09:39:13;;;;;;;9.73;4.73;;;28.70;47.00;;;;;;5047991;28;20170;-57
2021/06/18 09:41:43;;;;;;;9.50;4.50;;;28.80;47.70;;;;;;5046312;28;20559;-57
2021/06/18 09:44:11;;;;;;;10.60;4.67;;;28.90;46.70;;;;;;5044331;28;20252;-56
2021/06/18 09:46:48;;;;;;;10.33;5.40;;;28.90;46.50;;;;;;5043484;28;20198;-58
2021/06/18 09:49:35;;;;;;;8.00;4.53;;;29.00;46.00;;;;;;5042693;28;20180;-57
2021/06/18 09:52:13;;;;;;;8.70;4.63;;;29.00;45.80;;;;;;5017133;28;20198;-57
2021/06/18 09:54:46;;;;;;;6.70;4.83;;;29.10;44.80;;;;;;5039003;28;20188;-52
2021/06/18 09:57:23;;;;;;;6.00;4.53;;;29.20;44.20;;;;;;5041210;28;20177;-54
2021/06/18 09:59:53;;;;;;;8.80;5.07;;;29.30;44.20;;;;;;5039964;28;20181;-51
2021/06/18 10:02:22;;;;;;;10.63;5.27;;;29.40;44.50;;;;;;5038077;28;20213;-53
2021/06/18 10:04:49;;;;;;;16.93;5.10;;;29.50;44.20;;;;;;5027723;28;20963;-58
2021/06/18 10:07:16;;;;;;;10.30;4.80;;;29.50;44.60;;;;;;5039724;28;20179;-55
2021/06/18 10:09:42;;;;;;;7.33;4.73;;;29.60;44.80;;;;;;5042451;28;20228;-54
2021/06/18 10:12:08;;;;;;;7.60;4.87;;;29.70;44.50;;;;;;5046027;28;20659;-54
2021/06/18 10:14:34;;;;;;;7.43;4.50;;;29.80;45.30;;;;;;5038983;28;20581;-55
2021/06/18 10:17:00;;;;;;;7.03;5.28;;;29.90;45.30;;;;;;5044691;28;20658;-58
2021/06/18 10:19:27;;;;;;;7.90;4.73;;;30.00;45.40;;;;;;5047441;28;20663;-55
2021/06/18 10:22:02;;;;;;;9.85;4.80;;;30.00;44.40;;;;;;5045606;28;20409;-55
2021/06/18 10:24:36;;;;;;;13.93;4.82;;;30.00;44.40;;;;;;5046242;28;20177;-54
2021/06/18 10:27:04;;;;;;;6.80;4.40;;;30.00;44.20;;;;;;5054320;22;20891;-59
2021/06/18 10:29:37;;;;;;;8.38;4.40;;;30.10;44.80;;;;;;5027833;28;20185;-59
2021/06/18 10:32:28;;;;;;;9.90;4.50;;;30.20;45.30;;;;;;5039252;28;20181;-59
2021/06/18 10:34:55;;;;;;;6.10;4.90;;;30.30;43.60;;;;;;5041736;28;20173;-59
2021/06/18 10:37:23;;;;;;;7.72;4.60;;;30.40;44.00;;;;;;5048118;28;20561;-57
2021/06/18 10:39:53;;;;;;;7.72;4.28;;;30.60;43.80;;;;;;5045117;28;20247;-59
2021/06/18 10:42:19;;;;;;;5.75;4.20;;;30.70;43.50;;;;;;5035218;28;20209;-59
2021/06/18 10:44:50;;;;;;;9.30;4.93;;;30.90;44.60;;;;;;5018232;28;20274;-62
2021/06/18 10:47:22;;;;;;;12.10;5.05;;;31.00;45.00;;;;;;5035896;28;20608;-60
2021/06/18 10:49:48;;;;;;;7.95;5.03;;;31.10;43.60;;;;;;5042492;28;20230;-60
2021/06/18 10:52:22;;;;;;;5.85;4.80;;;31.10;43.20;;;;;;5044052;28;20186;-60
2021/06/18 10:54:52;;;;;;;10.65;4.82;;;31.20;43.10;;;;;;5046991;28;20190;-59
2021/06/18 10:57:19;;;;;;;10.90;5.30;;;31.30;42.80;;;;;;5046225;28;20235;-59
2021/06/18 10:59:46;;;;;;;6.03;4.50;;;31.30;42.40;;;;;;5045703;28;20178;-60
2021/06/18 11:02:21;;;;;;;8.38;4.75;;;31.40;42.80;;;;;;5038422;28;20241;-59
2021/06/18 11:04:51;;;;;;;6.63;4.63;;;31.50;42.60;;;;;;5038681;28;20181;-61
2021/06/18 11:07:38;;;;;;;10.68;4.65;;;31.60;42.50;;;;;;5043706;28;20191;-62
2021/06/18 11:10:26;;;;;;;14.35;4.63;;;31.70;42.40;;;;;;5039153;28;20183;-61
2021/06/18 11:13:03;;;;;;;10.63;4.55;;;31.70;39.30;;;;;;5036571;28;20193;-58
2021/06/18 11:15:29;;;;;;;17.13;4.88;;;31.70;40.10;;;;;;5042295;28;20584;-61
2021/06/18 11:18:36;;;;;;;11.45;4.50;;;31.80;39.90;;;;;;5044429;28;20207;-59
2021/06/18 11:21:03;;;;;;;6.50;4.40;;;31.90;38.70;;;;;;5015404;28;20203;-61
2021/06/18 11:23:34;;;;;;;6.80;4.40;;;31.90;38.60;;;;;;5043563;28;20890;-59
2021/06/18 11:26:08;;;;;;;6.57;3.78;;;31.80;38.60;;;;;;5037570;28;20173;-59
2021/06/18 11:28:40;;;;;;;6.35;3.90;;;31.90;37.20;;;;;;5039887;28;20203;-60
2021/06/18 11:31:21;;;;;;;10.48;4.50;;;31.90;37.30;;;;;;5040887;28;20189;-60
2021/06/18 11:33:55;;;;;;;9.90;3.63;;;31.90;36.40;;;;;;5043767;28;20186;-60
2021/06/18 11:36:21;;;;;;;10.07;5.28;;;31.90;34.80;;;;;;5042901;28;20180;-59
2021/06/18 11:38:49;;;;;;;8.73;4.25;;;31.80;35.40;;;;;;5036150;28;20192;-62
2021/06/18 11:41:20;;;;;;;11.35;4.68;;;32.00;36.50;;;;;;5023772;28;20204;-60
2021/06/18 11:43:49;;;;;;;17.27;4.82;;;32.10;37.10;;;;;;5047561;28;20705;-59
2021/06/18 11:46:18;;;;;;;8.88;5.10;;;32.20;35.80;;;;;;5046964;28;20206;-61
2021/06/18 11:48:44;;;;;;;17.95;4.22;;;32.30;35.50;;;;;;5022736;28;20193;-62
2021/06/18 11:51:20;;;;;;;15.38;4.85;;;32.40;35.00;;;;;;5044712;28;20631;-57
2021/06/18 11:53:47;;;;;;;10.45;6.63;;;32.50;36.50;;;;;;5023366;28;20206;-59
2021/06/18 11:56:13;;;;;;;9.10;4.68;;;32.60;36.70;;;;;;5046539;28;20589;-59
2021/06/18 11:58:44;;;;;;;10.45;4.22;;;32.70;37.10;;;;;;5029511;28;20186;-62
2021/06/18 12:01:29;;;;;;;8.82;4.63;;;32.80;36.00;;;;;;5026426;28;20198;-62
2021/06/18 12:04:00;;;;;;;12.15;4.30;;;32.90;36.80;;;;;;5034077;28;20179;-60
2021/06/18 12:06:28;;;;;;;13.43;4.93;;;32.90;35.90;;;;;;5040423;28;20174;-61
2021/06/18 12:09:06;;;;;;;9.13;5.18;;;33.00;36.70;;;;;;5042956;28;20351;-59
2021/06/18 12:11:59;;;;;;;12.13;4.32;;;33.10;36.10;;;;;;5026381;28;20193;-61
2021/06/18 12:14:33;;;;;;;15.55;5.13;;;33.20;37.20;;;;;;5042424;28;20651;-59
2021/06/18 12:16:59;;;;;;;13.15;4.47;;;33.30;38.20;;;;;;5046800;28;20178;-61
2021/06/18 12:19:30;;;;;;;12.32;5.45;;;33.50;37.60;;;;;;5036464;28;20550;-61
2021/06/18 12:22:11;;;;;;;11.20;5.72;;;33.50;35.40;;;;;;5044535;28;20721;-61
2021/06/18 12:24:49;;;;;;;10.35;4.38;;;33.60;36.60;;;;;;5043784;28;20297;-63
2021/06/18 12:27:19;;;;;;;8.38;3.88;;;33.70;36.20;;;;;;5041107;28;20327;-61
2021/06/18 12:29:56;;;;;;;6.88;4.55;;;33.70;35.00;;;;;;5042797;28;20171;-61
2021/06/18 12:32:31;;;;;;;15.40;6.20;;;33.70;34.20;;;;;;5034506;28;20175;-63
2021/06/18 12:35:06;;;;;;;8.10;4.43;;;33.80;34.10;;;;;;5020268;28;20721;-60
2021/06/18 12:37:37;;;;;;;10.32;4.07;;;33.90;34.40;;;;;;5041489;28;20671;-57
2021/06/18 12:40:06;;;;;;;11.30;4.95;;;34.00;32.60;;;;;;5042777;28;20189;-60
2021/06/18 12:42:49;;;;;;;10.52;3.25;;;34.10;33.10;;;;;;5038702;28;20561;-58
2021/06/18 12:45:23;;;;;;;9.50;3.97;;;34.10;31.70;;;;;;5039516;28;20194;-58
2021/06/18 12:48:10;;;;;;;9.23;3.90;;;34.20;32.10;;;;;;5040785;28;20199;-62
2021/06/18 12:50:44;;;;;;;8.60;3.17;;;34.10;30.20;;;;;;5025206;28;20724;-58
2021/06/18 12:53:14;;;;;;;8.70;3.38;;;34.00;30.10;;;;;;5041449;28;20214;-59